sensor_id;sensor_type;location;lat;lon;timestamp;P1;durP1;ratioP1;P2;durP2;ratioP2
19621;SDS011;9958;33.196;-97.114;2022-12-18T00:01:29;1.25;;;1.15;;
19621;SDS011;9958;33.196;-97.114;2022-12-18T00:04:02;1.15;;;1.05;;
19621;SDS011;9958;33.196;-97.114;2022-12-18T00:06:34;3.72;;;2.10;;
19621;SDS011;9958;33.196;-97.114;2022-12-18T00:09:03;3.70;;;1.60;;
19621;SDS011;9958;33.196;-97.114;2022-12-18T00:11:31;1.83;;;1.10;;
19621;SDS011;9958;33.196;-97.114;2022-12-18T00:13:59;0.80;;;0.80;;
19621;SDS011;9958;33.196;-97.114;2022-12-18T00:16:28;2.50;;;1.00;;
19621;SDS011;9958;33.196;-97.114;2022-12-18T00:18:58;2.10;;;1.25;;
19621;SDS011;9958;33.196;-97.114;2022-12-18T00:21:29;1.13;;;1.13;;
19621;SDS011;9958;33.196;-97.114;2022-12-18T00:23:59;0.85;;;0.85;;
19621;SDS011;9958;33.196;-97.114;2022-12-18T00:26:28;1.60;;;1.40;;
19621;SDS011;9958;33.196;-97.114;2022-12-18T00:28:58;0.95;;;0.90;;
19621;SDS011;9958;33.196;-97.114;2022-12-18T00:31:27;2.78;;;0.95;;
19621;SDS011;9958;33.196;-97.114;2022-12-18T00:33:56;1.17;;;0.85;;
19621;SDS011;9958;33.196;-97.114;2022-12-18T00:36:28;0.73;;;0.73;;
19621;SDS011;9958;33.196;-97.114;2022-12-18T00:38:58;0.88;;;0.70;;
19621;SDS011;9958;33.196;-97.114;2022-12-18T00:41:27;1.95;;;1.58;;
19621;SDS011;9958;33.196;-97.114;2022-12-18T00:44:13;4.05;;;3.10;;
19621;SDS011;9958;33.196;-97.114;2022-12-18T00:46:43;3.22;;;2.50;;
19621;SDS011;9958;33.196;-97.114;2022-12-18T00:49:12;4.28;;;2.00;;
19621;SDS011;9958;33.196;-97.114;2022-12-18T00:51:42;3.08;;;2.17;;
19621;SDS011;9958;33.196;-97.114;2022-12-18T00:54:10;5.28;;;2.40;;
19621;SDS011;9958;33.196;-97.114;2022-12-18T00:56:39;1.65;;;1.55;;
19621;SDS011;9958;33.196;-97.114;2022-12-18T00:59:07;5.78;;;1.25;;
19621;SDS011;9958;33.196;-97.114;2022-12-18T01:01:36;1.55;;;1.20;;
19621;SDS011;9958;33.196;-97.114;2022-12-18T01:04:04;2.10;;;1.30;;
19621;SDS011;9958;33.196;-97.114;2022-12-18T01:06:33;2.35;;;1.50;;
19621;SDS011;9958;33.196;-97.114;2022-12-18T01:09:03;3.95;;;1.33;;
19621;SDS011;9958;33.196;-97.114;2022-12-18T01:11:31;2.72;;;1.55;;
19621;SDS011;9958;33.196;-97.114;2022-12-18T01:13:59;3.58;;;1.30;;
19621;SDS011;9958;33.196;-97.114;2022-12-18T01:16:28;1.70;;;1.15;;
19621;SDS011;9958;33.196;-97.114;2022-12-18T01:18:56;3.08;;;1.15;;
19621;SDS011;9958;33.196;-97.114;2022-12-18T01:21:27;1.05;;;1.00;;
19621;SDS011;9958;33.196;-97.114;2022-12-18T01:23:56;1.80;;;1.50;;
19621;SDS011;9958;33.196;-97.114;2022-12-18T01:26:26;0.75;;;0.75;;
19621;SDS011;9958;33.196;-97.114;2022-12-18T01:28:56;1.50;;;1.08;;
19621;SDS011;9958;33.196;-97.114;2022-12-18T01:31:25;1.00;;;1.00;;
19621;SDS011;9958;33.196;-97.114;2022-12-18T01:33:54;1.10;;;1.10;;
19621;SDS011;9958;33.196;-97.114;2022-12-18T01:36:23;1.38;;;1.10;;
19621;SDS011;9958;33.196;-97.114;2022-12-18T01:38:53;2.30;;;1.10;;
19621;SDS011;9958;33.196;-97.114;2022-12-18T01:41:22;5.75;;;1.10;;
19621;SDS011;9958;33.196;-97.114;2022-12-18T01:43:54;2.65;;;1.25;;
19621;SDS011;9958;33.196;-97.114;2022-12-18T01:46:24;2.97;;;1.75;;
19621;SDS011;9958;33.196;-97.114;2022-12-18T01:48:53;1.15;;;1.02;;
19621;SDS011;9958;33.196;-97.114;2022-12-18T01:51:24;1.70;;;1.38;;
19621;SDS011;9958;33.196;-97.114;2022-12-18T01:53:54;1.35;;;1.15;;
19621;SDS011;9958;33.196;-97.114;2022-12-18T01:56:22;2.63;;;1.40;;
19621;SDS011;9958;33.196;-97.114;2022-12-18T01:58:54;2.72;;;1.38;;
19621;SDS011;9958;33.196;-97.114;2022-12-18T02:01:28;1.40;;;1.23;;
19621;SDS011;9958;33.196;-97.114;2022-12-18T02:04:10;1.00;;;0.90;;
19621;SDS011;9958;33.196;-97.114;2022-12-18T02:06:48;1.75;;;1.25;;
19621;SDS011;9958;33.196;-97.114;2022-12-18T02:09:22;2.47;;;1.15;;
19621;SDS011;9958;33.196;-97.114;2022-12-18T02:11:56;1.35;;;1.20;;
19621;SDS011;9958;33.196;-97.114;2022-12-18T02:14:34;1.25;;;1.15;;
19621;SDS011;9958;33.196;-97.114;2022-12-18T02:17:09;0.88;;;0.88;;
19621;SDS011;9958;33.196;-97.114;2022-12-18T02:19:47;1.27;;;1.13;;
19621;SDS011;9958;33.196;-97.114;2022-12-18T02:22:30;1.90;;;1.35;;
19621;SDS011;9958;33.196;-97.114;2022-12-18T02:25:12;1.15;;;0.98;;
19621;SDS011;9958;33.196;-97.114;2022-12-18T02:27:50;1.63;;;1.52;;
19621;SDS011;9958;33.196;-97.114;2022-12-18T02:30:19;5.28;;;1.55;;
19621;SDS011;9958;33.196;-97.114;2022-12-18T02:32:50;2.47;;;0.90;;
19621;SDS011;9958;33.196;-97.114;2022-12-18T02:35:20;2.08;;;1.25;;
19621;SDS011;9958;33.196;-97.114;2022-12-18T02:37:51;2.60;;;0.50;;
19621;SDS011;9958;33.196;-97.114;2022-12-18T02:40:21;1.67;;;0.93;;
19621;SDS011;9958;33.196;-97.114;2022-12-18T02:42:53;2.58;;;1.00;;
19621;SDS011;9958;33.196;-97.114;2022-12-18T02:45:21;1.00;;;1.00;;
19621;SDS011;9958;33.196;-97.114;2022-12-18T02:47:49;1.63;;;1.10;;
19621;SDS011;9958;33.196;-97.114;2022-12-18T02:50:19;2.88;;;0.85;;
19621;SDS011;9958;33.196;-97.114;2022-12-18T02:52:58;1.67;;;1.20;;
19621;SDS011;9958;33.196;-97.114;2022-12-18T02:55:35;2.38;;;1.20;;
19621;SDS011;9958;33.196;-97.114;2022-12-18T02:58:16;3.22;;;1.05;;
19621;SDS011;9958;33.196;-97.114;2022-12-18T03:00:48;2.35;;;1.27;;
19621;SDS011;9958;33.196;-97.114;2022-12-18T03:03:24;1.98;;;1.60;;
19621;SDS011;9958;33.196;-97.114;2022-12-18T03:05:58;5.43;;;1.65;;
19621;SDS011;9958;33.196;-97.114;2022-12-18T03:08:33;4.20;;;1.73;;
19621;SDS011;9958;33.196;-97.114;2022-12-18T03:11:06;2.83;;;1.92;;
19621;SDS011;9958;33.196;-97.114;2022-12-18T03:13:39;3.05;;;1.77;;
19621;SDS011;9958;33.196;-97.114;2022-12-18T03:16:14;2.95;;;2.45;;
19621;SDS011;9958;33.196;-97.114;2022-12-18T03:18:45;2.70;;;1.52;;
19621;SDS011;9958;33.196;-97.114;2022-12-18T03:21:17;3.47;;;1.67;;
19621;SDS011;9958;33.196;-97.114;2022-12-18T03:23:50;1.95;;;1.60;;
19621;SDS011;9958;33.196;-97.114;2022-12-18T03:26:20;8.00;;;2.47;;
19621;SDS011;9958;33.196;-97.114;2022-12-18T03:28:55;3.47;;;2.17;;
19621;SDS011;9958;33.196;-97.114;2022-12-18T03:31:27;5.90;;;2.47;;
19621;SDS011;9958;33.196;-97.114;2022-12-18T03:33:58;2.38;;;1.88;;
19621;SDS011;9958;33.196;-97.114;2022-12-18T03:36:29;3.97;;;2.38;;
19621;SDS011;9958;33.196;-97.114;2022-12-18T03:38:57;2.42;;;2.00;;
19621;SDS011;9958;33.196;-97.114;2022-12-18T03:41:27;3.05;;;1.90;;
19621;SDS011;9958;33.196;-97.114;2022-12-18T03:44:02;4.55;;;2.38;;
19621;SDS011;9958;33.196;-97.114;2022-12-18T03:46:39;3.20;;;1.88;;
19621;SDS011;9958;33.196;-97.114;2022-12-18T03:49:11;3.95;;;2.08;;
19621;SDS011;9958;33.196;-97.114;2022-12-18T03:51:45;2.30;;;2.10;;
19621;SDS011;9958;33.196;-97.114;2022-12-18T03:54:18;2.72;;;2.08;;
19621;SDS011;9958;33.196;-97.114;2022-12-18T03:56:49;3.63;;;2.10;;
19621;SDS011;9958;33.196;-97.114;2022-12-18T03:59:23;3.53;;;2.20;;
19621;SDS011;9958;33.196;-97.114;2022-12-18T04:01:54;5.82;;;2.63;;
19621;SDS011;9958;33.196;-97.114;2022-12-18T04:04:26;3.50;;;2.25;;
19621;SDS011;9958;33.196;-97.114;2022-12-18T04:06:56;3.50;;;1.88;;
19621;SDS011;9958;33.196;-97.114;2022-12-18T04:09:25;5.68;;;2.70;;
19621;SDS011;9958;33.196;-97.114;2022-12-18T04:11:54;8.50;;;3.92;;
19621;SDS011;9958;33.196;-97.114;2022-12-18T04:14:24;5.60;;;2.95;;
19621;SDS011;9958;33.196;-97.114;2022-12-18T04:16:52;6.13;;;2.67;;
19621;SDS011;9958;33.196;-97.114;2022-12-18T04:19:21;4.25;;;2.00;;
19621;SDS011;9958;33.196;-97.114;2022-12-18T04:21:49;4.05;;;2.50;;
19621;SDS011;9958;33.196;-97.114;2022-12-18T04:24:17;4.30;;;2.53;;
19621;SDS011;9958;33.196;-97.114;2022-12-18T04:26:45;5.57;;;3.20;;
19621;SDS011;9958;33.196;-97.114;2022-12-18T04:29:14;4.50;;;2.63;;
19621;SDS011;9958;33.196;-97.114;2022-12-18T04:31:44;7.05;;;2.63;;
19621;SDS011;9958;33.196;-97.114;2022-12-18T04:34:12;5.20;;;2.20;;
19621;SDS011;9958;33.196;-97.114;2022-12-18T04:36:41;6.65;;;2.33;;
19621;SDS011;9958;33.196;-97.114;2022-12-18T04:39:09;4.88;;;2.28;;
19621;SDS011;9958;33.196;-97.114;2022-12-18T04:41:37;2.97;;;2.00;;
19621;SDS011;9958;33.196;-97.114;2022-12-18T04:44:06;1.75;;;1.60;;
19621;SDS011;9958;33.196;-97.114;2022-12-18T04:46:35;3.60;;;1.80;;
19621;SDS011;9958;33.196;-97.114;2022-12-18T04:49:05;4.45;;;2.30;;
19621;SDS011;9958;33.196;-97.114;2022-12-18T04:51:33;2.50;;;2.08;;
19621;SDS011;9958;33.196;-97.114;2022-12-18T04:54:01;3.33;;;2.00;;
19621;SDS011;9958;33.196;-97.114;2022-12-18T04:56:30;4.13;;;1.88;;
19621;SDS011;9958;33.196;-97.114;2022-12-18T04:58:59;3.00;;;1.83;;
19621;SDS011;9958;33.196;-97.114;2022-12-18T05:01:27;2.72;;;1.80;;
19621;SDS011;9958;33.196;-97.114;2022-12-18T05:03:55;2.22;;;1.80;;
19621;SDS011;9958;33.196;-97.114;2022-12-18T05:06:25;3.58;;;1.75;;
19621;SDS011;9958;33.196;-97.114;2022-12-18T05:08:53;7.15;;;2.20;;
19621;SDS011;9958;33.196;-97.114;2022-12-18T05:11:22;2.35;;;1.92;;
19621;SDS011;9958;33.196;-97.114;2022-12-18T05:13:50;2.78;;;2.17;;
19621;SDS011;9958;33.196;-97.114;2022-12-18T05:16:18;8.90;;;2.08;;
19621;SDS011;9958;33.196;-97.114;2022-12-18T05:18:47;3.47;;;1.85;;
19621;SDS011;9958;33.196;-97.114;2022-12-18T05:21:15;2.70;;;1.80;;
19621;SDS011;9958;33.196;-97.114;2022-12-18T05:23:45;3.10;;;1.70;;
19621;SDS011;9958;33.196;-97.114;2022-12-18T05:26:14;4.82;;;2.38;;
19621;SDS011;9958;33.196;-97.114;2022-12-18T05:28:44;3.22;;;2.15;;
19621;SDS011;9958;33.196;-97.114;2022-12-18T05:31:13;5.35;;;2.03;;
19621;SDS011;9958;33.196;-97.114;2022-12-18T05:33:41;3.20;;;2.20;;
19621;SDS011;9958;33.196;-97.114;2022-12-18T05:36:10;5.85;;;2.05;;
19621;SDS011;9958;33.196;-97.114;2022-12-18T05:38:38;1.10;;;1.08;;
19621;SDS011;9958;33.196;-97.114;2022-12-18T05:41:08;4.13;;;2.30;;
19621;SDS011;9958;33.196;-97.114;2022-12-18T05:43:37;2.63;;;1.77;;
19621;SDS011;9958;33.196;-97.114;2022-12-18T05:46:08;1.88;;;1.67;;
19621;SDS011;9958;33.196;-97.114;2022-12-18T05:48:39;3.70;;;1.90;;
19621;SDS011;9958;33.196;-97.114;2022-12-18T05:51:07;3.05;;;1.73;;
19621;SDS011;9958;33.196;-97.114;2022-12-18T05:53:37;2.47;;;1.45;;
19621;SDS011;9958;33.196;-97.114;2022-12-18T05:56:07;2.30;;;1.50;;
19621;SDS011;9958;33.196;-97.114;2022-12-18T05:58:38;1.75;;;1.40;;
19621;SDS011;9958;33.196;-97.114;2022-12-18T06:01:06;1.75;;;1.60;;
19621;SDS011;9958;33.196;-97.114;2022-12-18T06:03:37;3.53;;;1.55;;
19621;SDS011;9958;33.196;-97.114;2022-12-18T06:06:12;3.22;;;1.98;;
19621;SDS011;9958;33.196;-97.114;2022-12-18T06:08:41;2.22;;;1.70;;
19621;SDS011;9958;33.196;-97.114;2022-12-18T06:11:11;2.55;;;1.80;;
19621;SDS011;9958;33.196;-97.114;2022-12-18T06:13:40;3.13;;;2.08;;
19621;SDS011;9958;33.196;-97.114;2022-12-18T06:16:08;2.72;;;1.63;;
19621;SDS011;9958;33.196;-97.114;2022-12-18T06:18:37;6.03;;;3.15;;
19621;SDS011;9958;33.196;-97.114;2022-12-18T06:21:05;10.20;;;2.42;;
19621;SDS011;9958;33.196;-97.114;2022-12-18T06:23:34;6.93;;;3.05;;
19621;SDS011;9958;33.196;-97.114;2022-12-18T06:26:03;4.18;;;2.70;;
19621;SDS011;9958;33.196;-97.114;2022-12-18T06:28:35;3.33;;;2.60;;
19621;SDS011;9958;33.196;-97.114;2022-12-18T06:31:03;9.60;;;3.28;;
19621;SDS011;9958;33.196;-97.114;2022-12-18T06:33:32;6.68;;;4.35;;
19621;SDS011;9958;33.196;-97.114;2022-12-18T06:36:01;13.20;;;4.65;;
19621;SDS011;9958;33.196;-97.114;2022-12-18T06:38:32;5.43;;;3.40;;
19621;SDS011;9958;33.196;-97.114;2022-12-18T06:41:02;12.35;;;3.30;;
19621;SDS011;9958;33.196;-97.114;2022-12-18T06:43:36;9.20;;;4.95;;
19621;SDS011;9958;33.196;-97.114;2022-12-18T06:46:04;7.53;;;3.92;;
19621;SDS011;9958;33.196;-97.114;2022-12-18T06:48:33;9.50;;;4.10;;
19621;SDS011;9958;33.196;-97.114;2022-12-18T06:51:01;7.30;;;4.13;;
19621;SDS011;9958;33.196;-97.114;2022-12-18T06:53:30;17.52;;;4.80;;
19621;SDS011;9958;33.196;-97.114;2022-12-18T06:56:00;14.35;;;4.07;;
19621;SDS011;9958;33.196;-97.114;2022-12-18T06:58:28;9.40;;;4.35;;
19621;SDS011;9958;33.196;-97.114;2022-12-18T07:01:01;9.75;;;4.57;;
19621;SDS011;9958;33.196;-97.114;2022-12-18T07:03:30;6.63;;;4.43;;
19621;SDS011;9958;33.196;-97.114;2022-12-18T07:05:58;6.22;;;4.72;;
19621;SDS011;9958;33.196;-97.114;2022-12-18T07:08:28;9.90;;;4.38;;
19621;SDS011;9958;33.196;-97.114;2022-12-18T07:10:56;8.30;;;3.35;;
19621;SDS011;9958;33.196;-97.114;2022-12-18T07:13:25;9.15;;;4.15;;
19621;SDS011;9958;33.196;-97.114;2022-12-18T07:15:53;5.63;;;3.85;;
19621;SDS011;9958;33.196;-97.114;2022-12-18T07:18:23;3.92;;;3.03;;
19621;SDS011;9958;33.196;-97.114;2022-12-18T07:20:51;9.63;;;4.25;;
19621;SDS011;9958;33.196;-97.114;2022-12-18T07:23:20;4.93;;;3.50;;
19621;SDS011;9958;33.196;-97.114;2022-12-18T07:25:48;4.00;;;3.28;;
19621;SDS011;9958;33.196;-97.114;2022-12-18T07:28:16;4.70;;;3.20;;
19621;SDS011;9958;33.196;-97.114;2022-12-18T07:30:44;5.47;;;3.83;;
19621;SDS011;9958;33.196;-97.114;2022-12-18T07:33:13;5.18;;;3.35;;
19621;SDS011;9958;33.196;-97.114;2022-12-18T07:35:43;3.25;;;2.17;;
19621;SDS011;9958;33.196;-97.114;2022-12-18T07:38:11;4.20;;;2.13;;
19621;SDS011;9958;33.196;-97.114;2022-12-18T07:40:39;10.32;;;3.88;;
19621;SDS011;9958;33.196;-97.114;2022-12-18T07:43:08;7.00;;;3.22;;
19621;SDS011;9958;33.196;-97.114;2022-12-18T07:45:36;4.70;;;2.92;;
19621;SDS011;9958;33.196;-97.114;2022-12-18T07:48:04;5.38;;;3.25;;
19621;SDS011;9958;33.196;-97.114;2022-12-18T07:50:33;4.82;;;3.03;;
19621;SDS011;9958;33.196;-97.114;2022-12-18T07:53:02;2.67;;;2.30;;
19621;SDS011;9958;33.196;-97.114;2022-12-18T07:55:31;5.22;;;2.92;;
19621;SDS011;9958;33.196;-97.114;2022-12-18T07:58:00;2.88;;;2.28;;
19621;SDS011;9958;33.196;-97.114;2022-12-18T08:00:29;2.97;;;2.28;;
19621;SDS011;9958;33.196;-97.114;2022-12-18T08:02:58;3.50;;;2.35;;
19621;SDS011;9958;33.196;-97.114;2022-12-18T08:05:26;5.45;;;2.35;;
19621;SDS011;9958;33.196;-97.114;2022-12-18T08:07:55;4.55;;;2.20;;
19621;SDS011;9958;33.196;-97.114;2022-12-18T08:10:26;3.63;;;2.03;;
19621;SDS011;9958;33.196;-97.114;2022-12-18T08:12:55;4.03;;;2.72;;
19621;SDS011;9958;33.196;-97.114;2022-12-18T08:15:23;4.40;;;2.25;;
19621;SDS011;9958;33.196;-97.114;2022-12-18T08:17:51;4.60;;;1.98;;
19621;SDS011;9958;33.196;-97.114;2022-12-18T08:20:23;3.17;;;2.00;;
19621;SDS011;9958;33.196;-97.114;2022-12-18T08:22:51;3.42;;;2.17;;
19621;SDS011;9958;33.196;-97.114;2022-12-18T08:25:20;3.22;;;2.08;;
19621;SDS011;9958;33.196;-97.114;2022-12-18T08:27:50;4.47;;;2.28;;
19621;SDS011;9958;33.196;-97.114;2022-12-18T08:30:18;2.05;;;1.88;;
19621;SDS011;9958;33.196;-97.114;2022-12-18T08:32:46;2.60;;;1.85;;
19621;SDS011;9958;33.196;-97.114;2022-12-18T08:35:18;6.43;;;2.08;;
19621;SDS011;9958;33.196;-97.114;2022-12-18T08:37:46;3.83;;;1.75;;
19621;SDS011;9958;33.196;-97.114;2022-12-18T08:40:14;4.15;;;2.47;;
19621;SDS011;9958;33.196;-97.114;2022-12-18T08:42:43;2.72;;;1.70;;
19621;SDS011;9958;33.196;-97.114;2022-12-18T08:45:30;3.58;;;2.38;;
19621;SDS011;9958;33.196;-97.114;2022-12-18T08:47:58;2.47;;;1.70;;
19621;SDS011;9958;33.196;-97.114;2022-12-18T08:50:26;4.18;;;1.92;;
19621;SDS011;9958;33.196;-97.114;2022-12-18T08:52:55;6.13;;;2.13;;
19621;SDS011;9958;33.196;-97.114;2022-12-18T08:55:23;4.60;;;2.13;;
19621;SDS011;9958;33.196;-97.114;2022-12-18T08:57:51;2.40;;;1.98;;
19621;SDS011;9958;33.196;-97.114;2022-12-18T09:00:20;3.50;;;2.42;;
19621;SDS011;9958;33.196;-97.114;2022-12-18T09:02:50;8.30;;;3.15;;
19621;SDS011;9958;33.196;-97.114;2022-12-18T09:05:18;2.33;;;2.00;;
19621;SDS011;9958;33.196;-97.114;2022-12-18T09:07:46;3.33;;;2.22;;
19621;SDS011;9958;33.196;-97.114;2022-12-18T09:10:15;4.05;;;2.60;;
19621;SDS011;9958;33.196;-97.114;2022-12-18T09:12:43;2.97;;;2.17;;
19621;SDS011;9958;33.196;-97.114;2022-12-18T09:15:11;3.97;;;1.83;;
19621;SDS011;9958;33.196;-97.114;2022-12-18T09:17:40;1.95;;;1.85;;
19621;SDS011;9958;33.196;-97.114;2022-12-18T09:20:10;2.30;;;1.88;;
19621;SDS011;9958;33.196;-97.114;2022-12-18T09:22:38;3.08;;;2.03;;
19621;SDS011;9958;33.196;-97.114;2022-12-18T09:25:06;2.55;;;2.05;;
19621;SDS011;9958;33.196;-97.114;2022-12-18T09:27:35;2.55;;;1.88;;
19621;SDS011;9958;33.196;-97.114;2022-12-18T09:30:05;3.72;;;2.33;;
19621;SDS011;9958;33.196;-97.114;2022-12-18T09:32:34;5.18;;;2.00;;
19621;SDS011;9958;33.196;-97.114;2022-12-18T09:35:02;3.10;;;1.48;;
19621;SDS011;9958;33.196;-97.114;2022-12-18T09:37:33;6.55;;;2.97;;
19621;SDS011;9958;33.196;-97.114;2022-12-18T09:40:01;1.92;;;1.73;;
19621;SDS011;9958;33.196;-97.114;2022-12-18T09:42:29;2.85;;;1.75;;
19621;SDS011;9958;33.196;-97.114;2022-12-18T09:44:58;3.65;;;2.25;;
19621;SDS011;9958;33.196;-97.114;2022-12-18T09:47:28;3.28;;;2.92;;
19621;SDS011;9958;33.196;-97.114;2022-12-18T09:50:03;2.63;;;1.88;;
19621;SDS011;9958;33.196;-97.114;2022-12-18T09:52:35;4.80;;;1.98;;
19621;SDS011;9958;33.196;-97.114;2022-12-18T09:55:09;2.63;;;1.83;;
19621;SDS011;9958;33.196;-97.114;2022-12-18T09:57:45;4.35;;;2.83;;
19621;SDS011;9958;33.196;-97.114;2022-12-18T10:00:18;3.42;;;2.00;;
19621;SDS011;9958;33.196;-97.114;2022-12-18T10:02:48;4.05;;;2.13;;
19621;SDS011;9958;33.196;-97.114;2022-12-18T10:05:20;1.80;;;1.70;;
19621;SDS011;9958;33.196;-97.114;2022-12-18T10:07:59;3.20;;;2.05;;
19621;SDS011;9958;33.196;-97.114;2022-12-18T10:10:35;2.35;;;2.13;;
19621;SDS011;9958;33.196;-97.114;2022-12-18T10:13:13;4.45;;;2.08;;
19621;SDS011;9958;33.196;-97.114;2022-12-18T10:15:52;4.35;;;2.25;;
19621;SDS011;9958;33.196;-97.114;2022-12-18T10:18:33;7.90;;;3.05;;
19621;SDS011;9958;33.196;-97.114;2022-12-18T10:21:17;3.08;;;2.47;;
19621;SDS011;9958;33.196;-97.114;2022-12-18T10:23:51;2.65;;;2.13;;
19621;SDS011;9958;33.196;-97.114;2022-12-18T10:26:26;2.10;;;1.67;;
19621;SDS011;9958;33.196;-97.114;2022-12-18T10:28:54;2.08;;;1.83;;
19621;SDS011;9958;33.196;-97.114;2022-12-18T10:31:24;2.95;;;1.85;;
19621;SDS011;9958;33.196;-97.114;2022-12-18T10:33:53;5.45;;;2.47;;
19621;SDS011;9958;33.196;-97.114;2022-12-18T10:36:22;3.35;;;2.35;;
19621;SDS011;9958;33.196;-97.114;2022-12-18T10:38:53;2.45;;;2.10;;
19621;SDS011;9958;33.196;-97.114;2022-12-18T10:41:40;4.35;;;2.70;;
19621;SDS011;9958;33.196;-97.114;2022-12-18T10:44:14;3.40;;;2.35;;
19621;SDS011;9958;33.196;-97.114;2022-12-18T10:46:46;4.25;;;3.03;;
19621;SDS011;9958;33.196;-97.114;2022-12-18T10:49:19;3.92;;;3.22;;
19621;SDS011;9958;33.196;-97.114;2022-12-18T10:51:50;2.70;;;2.50;;
19621;SDS011;9958;33.196;-97.114;2022-12-18T10:54:32;3.80;;;2.85;;
19621;SDS011;9958;33.196;-97.114;2022-12-18T10:57:14;5.20;;;3.08;;
19621;SDS011;9958;33.196;-97.114;2022-12-18T10:59:49;2.95;;;2.33;;
19621;SDS011;9958;33.196;-97.114;2022-12-18T11:02:27;3.58;;;2.30;;
19621;SDS011;9958;33.196;-97.114;2022-12-18T11:05:01;5.40;;;2.75;;
19621;SDS011;9958;33.196;-97.114;2022-12-18T11:07:51;5.97;;;3.85;;
19621;SDS011;9958;33.196;-97.114;2022-12-18T11:10:25;5.28;;;2.58;;
19621;SDS011;9958;33.196;-97.114;2022-12-18T11:12:56;5.18;;;2.45;;
19621;SDS011;9958;33.196;-97.114;2022-12-18T11:15:39;3.30;;;2.55;;
19621;SDS011;9958;33.196;-97.114;2022-12-18T11:18:15;19.73;;;4.43;;
19621;SDS011;9958;33.196;-97.114;2022-12-18T11:20:56;6.32;;;2.75;;
19621;SDS011;9958;33.196;-97.114;2022-12-18T11:23:26;3.63;;;3.13;;
19621;SDS011;9958;33.196;-97.114;2022-12-18T11:25:58;8.40;;;3.50;;
19621;SDS011;9958;33.196;-97.114;2022-12-18T11:28:29;5.95;;;2.90;;
19621;SDS011;9958;33.196;-97.114;2022-12-18T11:31:16;7.07;;;3.22;;
19621;SDS011;9958;33.196;-97.114;2022-12-18T11:36:38;3.58;;;2.80;;
19621;SDS011;9958;33.196;-97.114;2022-12-18T11:39:10;5.15;;;3.25;;
19621;SDS011;9958;33.196;-97.114;2022-12-18T11:41:47;3.25;;;2.88;;
19621;SDS011;9958;33.196;-97.114;2022-12-18T11:44:41;4.15;;;3.30;;
19621;SDS011;9958;33.196;-97.114;2022-12-18T11:47:17;4.35;;;3.05;;
19621;SDS011;9958;33.196;-97.114;2022-12-18T11:49:55;13.80;;;3.85;;
19621;SDS011;9958;33.196;-97.114;2022-12-18T11:52:28;6.57;;;3.38;;
19621;SDS011;9958;33.196;-97.114;2022-12-18T11:55:04;3.90;;;2.72;;
19621;SDS011;9958;33.196;-97.114;2022-12-18T11:57:42;10.27;;;3.35;;
19621;SDS011;9958;33.196;-97.114;2022-12-18T12:00:22;4.88;;;2.83;;
19621;SDS011;9958;33.196;-97.114;2022-12-18T12:05:59;2.63;;;2.42;;
19621;SDS011;9958;33.196;-97.114;2022-12-18T12:08:36;6.80;;;2.72;;
19621;SDS011;9958;33.196;-97.114;2022-12-18T12:11:13;5.75;;;2.97;;
19621;SDS011;9958;33.196;-97.114;2022-12-18T12:13:51;4.47;;;2.78;;
19621;SDS011;9958;33.196;-97.114;2022-12-18T12:16:28;2.75;;;2.50;;
19621;SDS011;9958;33.196;-97.114;2022-12-18T12:19:05;2.88;;;2.65;;
19621;SDS011;9958;33.196;-97.114;2022-12-18T12:21:45;5.68;;;2.75;;
19621;SDS011;9958;33.196;-97.114;2022-12-18T12:24:23;4.88;;;1.92;;
19621;SDS011;9958;33.196;-97.114;2022-12-18T12:27:02;2.97;;;2.00;;
19621;SDS011;9958;33.196;-97.114;2022-12-18T12:29:42;2.67;;;2.13;;
19621;SDS011;9958;33.196;-97.114;2022-12-18T12:32:25;4.28;;;2.45;;
19621;SDS011;9958;33.196;-97.114;2022-12-18T12:35:06;2.92;;;2.60;;
19621;SDS011;9958;33.196;-97.114;2022-12-18T12:37:43;1.80;;;1.70;;
19621;SDS011;9958;33.196;-97.114;2022-12-18T12:40:18;2.50;;;2.33;;
19621;SDS011;9958;33.196;-97.114;2022-12-18T12:42:47;2.67;;;2.45;;
19621;SDS011;9958;33.196;-97.114;2022-12-18T12:45:39;2.33;;;2.13;;
19621;SDS011;9958;33.196;-97.114;2022-12-18T12:48:16;2.00;;;1.90;;
19621;SDS011;9958;33.196;-97.114;2022-12-18T12:50:51;2.83;;;1.83;;
19621;SDS011;9958;33.196;-97.114;2022-12-18T12:53:22;4.18;;;2.53;;
19621;SDS011;9958;33.196;-97.114;2022-12-18T12:55:55;5.90;;;2.08;;
19621;SDS011;9958;33.196;-97.114;2022-12-18T12:58:27;1.77;;;1.60;;
19621;SDS011;9958;33.196;-97.114;2022-12-18T13:01:05;2.60;;;2.20;;
19621;SDS011;9958;33.196;-97.114;2022-12-18T13:03:43;3.17;;;1.88;;
19621;SDS011;9958;33.196;-97.114;2022-12-18T13:06:22;3.50;;;2.33;;
19621;SDS011;9958;33.196;-97.114;2022-12-18T13:09:00;2.33;;;1.65;;
19621;SDS011;9958;33.196;-97.114;2022-12-18T13:11:35;2.72;;;2.30;;
19621;SDS011;9958;33.196;-97.114;2022-12-18T13:14:22;2.97;;;2.15;;
19621;SDS011;9958;33.196;-97.114;2022-12-18T13:20:02;2.22;;;2.03;;
19621;SDS011;9958;33.196;-97.114;2022-12-18T13:22:34;6.80;;;3.35;;
19621;SDS011;9958;33.196;-97.114;2022-12-18T13:28:01;2.60;;;1.75;;
19621;SDS011;9958;33.196;-97.114;2022-12-18T13:30:45;2.78;;;2.55;;
19621;SDS011;9958;33.196;-97.114;2022-12-18T13:36:16;3.05;;;2.50;;
19621;SDS011;9958;33.196;-97.114;2022-12-18T13:39:11;2.40;;;2.25;;
19621;SDS011;9958;33.196;-97.114;2022-12-18T13:45:42;3.13;;;2.20;;
19621;SDS011;9958;33.196;-97.114;2022-12-18T13:48:16;2.10;;;1.90;;
19621;SDS011;9958;33.196;-97.114;2022-12-18T13:50:56;3.95;;;2.83;;
19621;SDS011;9958;33.196;-97.114;2022-12-18T13:53:28;1.95;;;1.85;;
19621;SDS011;9958;33.196;-97.114;2022-12-18T13:56:00;6.43;;;3.08;;
19621;SDS011;9958;33.196;-97.114;2022-12-18T13:58:30;6.20;;;2.67;;
19621;SDS011;9958;33.196;-97.114;2022-12-18T14:00:58;5.03;;;3.03;;
19621;SDS011;9958;33.196;-97.114;2022-12-18T14:03:29;7.35;;;3.63;;
19621;SDS011;9958;33.196;-97.114;2022-12-18T14:06:04;3.83;;;2.75;;
19621;SDS011;9958;33.196;-97.114;2022-12-18T14:08:37;4.93;;;3.13;;
19621;SDS011;9958;33.196;-97.114;2022-12-18T14:11:07;11.45;;;3.20;;
19621;SDS011;9958;33.196;-97.114;2022-12-18T14:13:45;9.02;;;2.85;;
19621;SDS011;9958;33.196;-97.114;2022-12-18T14:16:14;12.60;;;2.97;;
19621;SDS011;9958;33.196;-97.114;2022-12-18T14:18:44;5.45;;;2.72;;
19621;SDS011;9958;33.196;-97.114;2022-12-18T14:21:20;3.47;;;2.40;;
19621;SDS011;9958;33.196;-97.114;2022-12-18T14:24:02;4.80;;;2.72;;
19621;SDS011;9958;33.196;-97.114;2022-12-18T14:26:32;3.92;;;2.80;;
19621;SDS011;9958;33.196;-97.114;2022-12-18T14:29:01;4.63;;;2.85;;
19621;SDS011;9958;33.196;-97.114;2022-12-18T14:31:45;3.80;;;2.58;;
19621;SDS011;9958;33.196;-97.114;2022-12-18T14:34:15;5.32;;;3.13;;
19621;SDS011;9958;33.196;-97.114;2022-12-18T14:36:53;3.63;;;3.25;;
19621;SDS011;9958;33.196;-97.114;2022-12-18T14:39:21;2.58;;;2.25;;
19621;SDS011;9958;33.196;-97.114;2022-12-18T14:41:51;3.15;;;2.85;;
19621;SDS011;9958;33.196;-97.114;2022-12-18T14:44:19;5.47;;;2.78;;
19621;SDS011;9958;33.196;-97.114;2022-12-18T14:46:48;5.05;;;3.88;;
19621;SDS011;9958;33.196;-97.114;2022-12-18T14:49:19;6.20;;;2.75;;
19621;SDS011;9958;33.196;-97.114;2022-12-18T14:51:53;3.42;;;2.72;;
19621;SDS011;9958;33.196;-97.114;2022-12-18T14:54:23;3.03;;;2.08;;
19621;SDS011;9958;33.196;-97.114;2022-12-18T14:56:54;5.00;;;2.80;;
19621;SDS011;9958;33.196;-97.114;2022-12-18T14:59:26;2.65;;;2.10;;
19621;SDS011;9958;33.196;-97.114;2022-12-18T15:02:00;4.70;;;2.80;;
19621;SDS011;9958;33.196;-97.114;2022-12-18T15:04:32;4.63;;;2.42;;
19621;SDS011;9958;33.196;-97.114;2022-12-18T15:07:04;9.45;;;2.70;;
19621;SDS011;9958;33.196;-97.114;2022-12-18T15:09:42;7.65;;;2.47;;
19621;SDS011;9958;33.196;-97.114;2022-12-18T15:12:19;2.35;;;2.15;;
19621;SDS011;9958;33.196;-97.114;2022-12-18T15:14:55;2.50;;;2.20;;
19621;SDS011;9958;33.196;-97.114;2022-12-18T15:17:24;2.13;;;1.92;;
19621;SDS011;9958;33.196;-97.114;2022-12-18T15:19:53;2.55;;;1.85;;